sensor_id;sensor_type;location;lat;lon;timestamp;pressure;altitude;pressure_sealevel;temperature;humidity
61761;BME280;47664;51.660;-0.100;2023-07-22T00:00:00;100710.82;;;16.99;47.22
61761;BME280;47664;51.660;-0.100;2023-07-22T00:02:27;100710.42;;;17.00;47.21
61761;BME280;47664;51.660;-0.100;2023-07-22T00:04:54;100708.15;;;17.22;46.96
61761;BME280;47664;51.660;-0.100;2023-07-22T00:07:22;100709.24;;;16.88;46.69
61761;BME280;47664;51.660;-0.100;2023-07-22T00:09:49;100709.56;;;17.08;47.02
61761;BME280;47664;51.660;-0.100;2023-07-22T00:12:16;100708.31;;;16.86;47.08
61761;BME280;47664;51.660;-0.100;2023-07-22T00:14:43;100707.85;;;16.89;47.07
61761;BME280;47664;51.660;-0.100;2023-07-22T00:17:10;100702.40;;;17.14;47.04
61761;BME280;47664;51.660;-0.100;2023-07-22T00:19:37;100699.23;;;16.57;47.27
61761;BME280;47664;51.660;-0.100;2023-07-22T00:22:04;100698.38;;;17.05;47.35
61761;BME280;47664;51.660;-0.100;2023-07-22T00:24:31;100695.41;;;17.11;47.32
61761;BME280;47664;51.660;-0.100;2023-07-22T00:26:58;100694.37;;;17.06;47.06
61761;BME280;47664;51.660;-0.100;2023-07-22T00:29:25;100685.77;;;17.30;46.95
61761;BME280;47664;51.660;-0.100;2023-07-22T00:31:52;100682.85;;;17.24;47.10
61761;BME280;47664;51.660;-0.100;2023-07-22T00:34:19;100678.81;;;17.01;47.19
61761;BME280;47664;51.660;-0.100;2023-07-22T00:36:46;100678.11;;;16.80;47.45
61761;BME280;47664;51.660;-0.100;2023-07-22T00:39:13;100675.07;;;17.06;47.42
61761;BME280;47664;51.660;-0.100;2023-07-22T00:41:40;100676.63;;;16.75;47.68
61761;BME280;47664;51.660;-0.100;2023-07-22T00:44:07;100670.31;;;16.89;47.47
61761;BME280;47664;51.660;-0.100;2023-07-22T00:46:34;100670.28;;;16.82;47.58
61761;BME280;47664;51.660;-0.100;2023-07-22T00:49:01;100663.04;;;17.15;47.39
61761;BME280;47664;51.660;-0.100;2023-07-22T00:51:28;100660.08;;;17.14;47.43
61761;BME280;47664;51.660;-0.100;2023-07-22T00:53:56;100659.89;;;17.07;47.58
61761;BME280;47664;51.660;-0.100;2023-07-22T00:56:24;100657.34;;;16.92;47.45
61761;BME280;47664;51.660;-0.100;2023-07-22T00:58:52;100652.17;;;17.24;47.18
61761;BME280;47664;51.660;-0.100;2023-07-22T01:01:19;100645.88;;;17.27;47.26
61761;BME280;47664;51.660;-0.100;2023-07-22T01:03:46;100642.12;;;17.10;47.37
61761;BME280;47664;51.660;-0.100;2023-07-22T01:06:14;100642.55;;;16.74;47.98
61761;BME280;47664;51.660;-0.100;2023-07-22T01:08:42;100637.66;;;16.74;48.15
61761;BME280;47664;51.660;-0.100;2023-07-22T01:11:09;100634.19;;;16.93;47.85
61761;BME280;47664;51.660;-0.100;2023-07-22T01:13:35;100635.21;;;16.94;47.96
61761;BME280;47664;51.660;-0.100;2023-07-22T01:16:03;100635.67;;;16.96;47.83
61761;BME280;47664;51.660;-0.100;2023-07-22T01:18:30;100633.17;;;16.48;47.78
61761;BME280;47664;51.660;-0.100;2023-07-22T01:20:58;100636.11;;;16.90;47.91
61761;BME280;47664;51.660;-0.100;2023-07-22T01:23:25;100635.49;;;16.47;48.38
61761;BME280;47664;51.660;-0.100;2023-07-22T01:25:52;100636.87;;;16.43;48.22
61761;BME280;47664;51.660;-0.100;2023-07-22T01:28:21;100630.16;;;16.46;48.57
61761;BME280;47664;51.660;-0.100;2023-07-22T01:30:48;100626.90;;;16.81;48.11
61761;BME280;47664;51.660;-0.100;2023-07-22T01:33:15;100623.26;;;16.87;47.85
61761;BME280;47664;51.660;-0.100;2023-07-22T01:35:42;100621.69;;;16.82;47.95
61761;BME280;47664;51.660;-0.100;2023-07-22T01:38:09;100619.96;;;16.85;47.89
61761;BME280;47664;51.660;-0.100;2023-07-22T01:40:36;100617.12;;;16.68;48.08
61761;BME280;47664;51.660;-0.100;2023-07-22T01:43:03;100617.84;;;16.31;48.77
61761;BME280;47664;51.660;-0.100;2023-07-22T01:45:30;100619.29;;;16.44;48.63
61761;BME280;47664;51.660;-0.100;2023-07-22T01:47:58;100616.37;;;16.21;49.03
61761;BME280;47664;51.660;-0.100;2023-07-22T01:50:25;100614.83;;;15.90;49.07
61761;BME280;47664;51.660;-0.100;2023-07-22T01:52:51;100614.24;;;16.05;49.71
61761;BME280;47664;51.660;-0.100;2023-07-22T01:55:18;100615.98;;;15.91;50.36
61761;BME280;47664;51.660;-0.100;2023-07-22T01:57:45;100613.42;;;16.03;50.24
61761;BME280;47664;51.660;-0.100;2023-07-22T02:00:13;100609.41;;;15.96;49.78
61761;BME280;47664;51.660;-0.100;2023-07-22T02:02:41;100607.36;;;16.14;49.93
61761;BME280;47664;51.660;-0.100;2023-07-22T02:05:39;100608.24;;;16.32;49.94
61761;BME280;47664;51.660;-0.100;2023-07-22T02:08:06;100609.83;;;15.81;50.20
61761;BME280;47664;51.660;-0.100;2023-07-22T02:10:33;100606.33;;;15.91;49.57
61761;BME280;47664;51.660;-0.100;2023-07-22T02:13:00;100606.16;;;16.20;49.46
61761;BME280;47664;51.660;-0.100;2023-07-22T02:15:27;100605.97;;;16.19;49.08
61761;BME280;47664;51.660;-0.100;2023-07-22T02:17:55;100605.14;;;16.06;49.24
61761;BME280;47664;51.660;-0.100;2023-07-22T02:20:22;100602.68;;;16.41;49.06
61761;BME280;47664;51.660;-0.100;2023-07-22T02:22:49;100598.58;;;16.21;49.00
61761;BME280;47664;51.660;-0.100;2023-07-22T02:25:16;100595.88;;;16.28;48.91
61761;BME280;47664;51.660;-0.100;2023-07-22T02:27:43;100595.24;;;15.91;49.46
61761;BME280;47664;51.660;-0.100;2023-07-22T02:30:10;100595.27;;;16.29;49.43
61761;BME280;47664;51.660;-0.100;2023-07-22T02:32:39;100591.11;;;16.02;49.46
61761;BME280;47664;51.660;-0.100;2023-07-22T02:35:07;100588.02;;;16.30;49.83
61761;BME280;47664;51.660;-0.100;2023-07-22T02:37:37;100586.84;;;15.95;50.14
61761;BME280;47664;51.660;-0.100;2023-07-22T02:40:06;100586.83;;;15.78;50.72
61761;BME280;47664;51.660;-0.100;2023-07-22T02:42:34;100584.14;;;15.66;51.06
61761;BME280;47664;51.660;-0.100;2023-07-22T02:45:01;100588.23;;;15.86;50.93
61761;BME280;47664;51.660;-0.100;2023-07-22T02:47:28;100592.12;;;15.69;50.69
61761;BME280;47664;51.660;-0.100;2023-07-22T02:49:54;100588.39;;;16.06;50.31
61761;BME280;47664;51.660;-0.100;2023-07-22T02:52:22;100584.64;;;15.67;50.27
61761;BME280;47664;51.660;-0.100;2023-07-22T02:55:06;100588.62;;;15.94;50.85
61761;BME280;47664;51.660;-0.100;2023-07-22T02:57:34;100584.17;;;15.65;51.22
61761;BME280;47664;51.660;-0.100;2023-07-22T03:00:02;100587.44;;;15.65;51.62
61761;BME280;47664;51.660;-0.100;2023-07-22T03:02:30;100590.09;;;15.46;51.36
61761;BME280;47664;51.660;-0.100;2023-07-22T03:04:57;100590.73;;;15.63;50.99
61761;BME280;47664;51.660;-0.100;2023-07-22T03:07:25;100592.82;;;15.56;50.78
61761;BME280;47664;51.660;-0.100;2023-07-22T03:09:52;100593.91;;;15.79;50.70
61761;BME280;47664;51.660;-0.100;2023-07-22T03:12:19;100593.51;;;16.20;50.47
61761;BME280;47664;51.660;-0.100;2023-07-22T03:14:46;100592.89;;;16.03;50.91
61761;BME280;47664;51.660;-0.100;2023-07-22T03:17:13;100588.96;;;15.65;50.63
61761;BME280;47664;51.660;-0.100;2023-07-22T03:19:40;100590.96;;;15.74;50.96
61761;BME280;47664;51.660;-0.100;2023-07-22T03:22:07;100589.50;;;15.79;50.94
61761;BME280;47664;51.660;-0.100;2023-07-22T03:24:34;100593.26;;;15.87;51.29
61761;BME280;47664;51.660;-0.100;2023-07-22T03:27:01;100594.30;;;16.03;51.21
61761;BME280;47664;51.660;-0.100;2023-07-22T03:29:28;100591.11;;;15.95;50.48
61761;BME280;47664;51.660;-0.100;2023-07-22T03:31:55;100591.28;;;15.50;50.92
61761;BME280;47664;51.660;-0.100;2023-07-22T03:34:22;100584.86;;;16.07;50.99
61761;BME280;47664;51.660;-0.100;2023-07-22T03:36:49;100585.24;;;15.74;51.27
61761;BME280;47664;51.660;-0.100;2023-07-22T03:39:16;100579.94;;;16.23;50.97
61761;BME280;47664;51.660;-0.100;2023-07-22T03:41:43;100579.65;;;16.20;50.95
61761;BME280;47664;51.660;-0.100;2023-07-22T03:44:10;100576.27;;;16.31;50.84
61761;BME280;47664;51.660;-0.100;2023-07-22T03:46:37;100574.44;;;16.19;50.64
61761;BME280;47664;51.660;-0.100;2023-07-22T03:49:04;100570.74;;;15.62;51.13
61761;BME280;47664;51.660;-0.100;2023-07-22T03:51:30;100572.98;;;15.58;51.39
61761;BME280;47664;51.660;-0.100;2023-07-22T03:53:57;100571.26;;;15.91;51.32
61761;BME280;47664;51.660;-0.100;2023-07-22T03:56:24;100569.54;;;15.76;51.15
61761;BME280;47664;51.660;-0.100;2023-07-22T03:58:52;100577.09;;;15.95;51.56
61761;BME280;47664;51.660;-0.100;2023-07-22T04:01:20;100573.92;;;15.93;51.41
61761;BME280;47664;51.660;-0.100;2023-07-22T04:03:48;100569.23;;;15.92;51.53
61761;BME280;47664;51.660;-0.100;2023-07-22T04:06:14;100566.41;;;16.21;51.31
61761;BME280;47664;51.660;-0.100;2023-07-22T04:08:41;100567.88;;;16.15;51.37
61761;BME280;47664;51.660;-0.100;2023-07-22T04:11:08;100569.19;;;15.77;51.56
61761;BME280;47664;51.660;-0.100;2023-07-22T04:13:35;100566.34;;;15.75;51.81
61761;BME280;47664;51.660;-0.100;2023-07-22T04:16:02;100565.54;;;16.14;51.39
61761;BME280;47664;51.660;-0.100;2023-07-22T04:18:30;100567.50;;;15.44;51.86
61761;BME280;47664;51.660;-0.100;2023-07-22T04:20:57;100566.62;;;15.85;51.97
61761;BME280;47664;51.660;-0.100;2023-07-22T04:23:24;100564.83;;;15.39;51.86
61761;BME280;47664;51.660;-0.100;2023-07-22T04:25:51;100565.19;;;15.87;51.54
61761;BME280;47664;51.660;-0.100;2023-07-22T04:28:19;100561.67;;;15.50;52.50
61761;BME280;47664;51.660;-0.100;2023-07-22T04:30:55;100559.08;;;15.44;53.17
61761;BME280;47664;51.660;-0.100;2023-07-22T04:33:22;100559.61;;;15.70;52.35
61761;BME280;47664;51.660;-0.100;2023-07-22T04:35:49;100563.20;;;15.88;52.11
61761;BME280;47664;51.660;-0.100;2023-07-22T04:38:16;100560.84;;;15.82;51.41
61761;BME280;47664;51.660;-0.100;2023-07-22T04:40:43;100558.31;;;15.96;51.09
61761;BME280;47664;51.660;-0.100;2023-07-22T04:43:10;100552.50;;;16.17;50.67
61761;BME280;47664;51.660;-0.100;2023-07-22T04:45:37;100551.30;;;16.20;50.65
61761;BME280;47664;51.660;-0.100;2023-07-22T04:48:04;100548.75;;;16.33;50.31
61761;BME280;47664;51.660;-0.100;2023-07-22T04:50:31;100551.86;;;16.47;50.30
61761;BME280;47664;51.660;-0.100;2023-07-22T04:52:58;100550.56;;;16.41;50.70
61761;BME280;47664;51.660;-0.100;2023-07-22T04:55:25;100541.56;;;16.09;50.61
61761;BME280;47664;51.660;-0.100;2023-07-22T04:57:52;100542.99;;;16.29;50.99
61761;BME280;47664;51.660;-0.100;2023-07-22T05:00:19;100539.83;;;16.04;50.90
61761;BME280;47664;51.660;-0.100;2023-07-22T05:02:46;100543.22;;;15.60;51.86
61761;BME280;47664;51.660;-0.100;2023-07-22T05:05:14;100540.75;;;16.05;51.95
61761;BME280;47664;51.660;-0.100;2023-07-22T05:07:42;100541.51;;;15.82;52.34
61761;BME280;47664;51.660;-0.100;2023-07-22T05:10:10;100535.01;;;15.63;52.41
61761;BME280;47664;51.660;-0.100;2023-07-22T05:12:37;100534.48;;;15.82;52.05
61761;BME280;47664;51.660;-0.100;2023-07-22T05:15:05;100535.16;;;15.85;51.52
61761;BME280;47664;51.660;-0.100;2023-07-22T05:17:32;100536.74;;;15.81;51.49
61761;BME280;47664;51.660;-0.100;2023-07-22T05:19:59;100531.79;;;16.20;51.31
61761;BME280;47664;51.660;-0.100;2023-07-22T05:22:26;100533.48;;;15.70;51.57
61761;BME280;47664;51.660;-0.100;2023-07-22T05:24:52;100535.12;;;15.62;52.79
61761;BME280;47664;51.660;-0.100;2023-07-22T05:27:20;100526.96;;;15.67;52.89
61761;BME280;47664;51.660;-0.100;2023-07-22T05:29:47;100520.31;;;15.38;54.08
61761;BME280;47664;51.660;-0.100;2023-07-22T05:32:14;100523.72;;;16.10;53.70
61761;BME280;47664;51.660;-0.100;2023-07-22T05:34:41;100525.32;;;15.95;53.47
61761;BME280;47664;51.660;-0.100;2023-07-22T05:37:08;100528.32;;;16.16;53.04
61761;BME280;47664;51.660;-0.100;2023-07-22T05:39:35;100528.92;;;16.01;52.24
61761;BME280;47664;51.660;-0.100;2023-07-22T05:42:02;100524.88;;;16.43;51.95
61761;BME280;47664;51.660;-0.100;2023-07-22T05:44:30;100524.95;;;16.17;51.88
61761;BME280;47664;51.660;-0.100;2023-07-22T05:46:57;100524.15;;;15.95;52.15
61761;BME280;47664;51.660;-0.100;2023-07-22T05:49:24;100520.43;;;15.99;51.76
61761;BME280;47664;51.660;-0.100;2023-07-22T05:51:51;100513.50;;;15.99;51.68
61761;BME280;47664;51.660;-0.100;2023-07-22T05:54:18;100517.02;;;16.42;51.51
61761;BME280;47664;51.660;-0.100;2023-07-22T05:56:44;100522.41;;;16.33;51.27
61761;BME280;47664;51.660;-0.100;2023-07-22T05:59:11;100516.62;;;16.12;51.31
61761;BME280;47664;51.660;-0.100;2023-07-22T06:01:38;100514.67;;;16.22;51.49
61761;BME280;47664;51.660;-0.100;2023-07-22T06:04:06;100512.09;;;16.22;51.94
61761;BME280;47664;51.660;-0.100;2023-07-22T06:06:33;100510.53;;;15.98;51.67
61761;BME280;47664;51.660;-0.100;2023-07-22T06:09:00;100518.66;;;15.65;52.90
61761;BME280;47664;51.660;-0.100;2023-07-22T06:11:27;100522.00;;;15.31;53.74
61761;BME280;47664;51.660;-0.100;2023-07-22T06:13:54;100520.53;;;15.81;53.13
61761;BME280;47664;51.660;-0.100;2023-07-22T06:16:21;100524.29;;;15.53;53.21
61761;BME280;47664;51.660;-0.100;2023-07-22T06:18:48;100521.63;;;15.92;52.50
61761;BME280;47664;51.660;-0.100;2023-07-22T06:21:15;100521.99;;;15.86;52.38
61761;BME280;47664;51.660;-0.100;2023-07-22T06:23:42;100517.66;;;15.93;51.70
61761;BME280;47664;51.660;-0.100;2023-07-22T06:26:09;100517.31;;;16.11;51.59
61761;BME280;47664;51.660;-0.100;2023-07-22T06:28:36;100514.43;;;16.33;51.87
61761;BME280;47664;51.660;-0.100;2023-07-22T06:31:03;100509.95;;;16.47;50.99
61761;BME280;47664;51.660;-0.100;2023-07-22T06:33:30;100506.27;;;15.97;51.38
61761;BME280;47664;51.660;-0.100;2023-07-22T06:35:59;100505.08;;;16.11;51.35
61761;BME280;47664;51.660;-0.100;2023-07-22T06:38:25;100507.03;;;16.05;50.93
61761;BME280;47664;51.660;-0.100;2023-07-22T06:40:52;100511.09;;;16.16;51.34
61761;BME280;47664;51.660;-0.100;2023-07-22T06:43:20;100503.60;;;16.34;51.44
61761;BME280;47664;51.660;-0.100;2023-07-22T06:45:47;100505.98;;;15.85;52.46
61761;BME280;47664;51.660;-0.100;2023-07-22T06:48:14;100502.18;;;15.96;52.30
61761;BME280;47664;51.660;-0.100;2023-07-22T06:50:47;100494.93;;;16.22;51.56
61761;BME280;47664;51.660;-0.100;2023-07-22T06:53:14;100503.78;;;16.21;52.08
61761;BME280;47664;51.660;-0.100;2023-07-22T06:55:48;100500.54;;;16.06;51.87
61761;BME280;47664;51.660;-0.100;2023-07-22T06:58:15;100502.18;;;16.04;51.92
61761;BME280;47664;51.660;-0.100;2023-07-22T07:00:43;100504.39;;;16.42;51.38
61761;BME280;47664;51.660;-0.100;2023-07-22T07:03:10;100502.87;;;16.36;50.99
61761;BME280;47664;51.660;-0.100;2023-07-22T07:05:37;100500.48;;;16.56;50.68
61761;BME280;47664;51.660;-0.100;2023-07-22T07:08:04;100499.22;;;16.45;50.36
61761;BME280;47664;51.660;-0.100;2023-07-22T07:10:38;100500.79;;;16.22;50.68
61761;BME280;47664;51.660;-0.100;2023-07-22T07:13:05;100505.16;;;16.26;51.15
61761;BME280;47664;51.660;-0.100;2023-07-22T07:15:33;100505.02;;;16.38;50.79
61761;BME280;47664;51.660;-0.100;2023-07-22T07:18:01;100502.34;;;16.33;51.45
61761;BME280;47664;51.660;-0.100;2023-07-22T07:20:28;100498.47;;;16.04;51.37
61761;BME280;47664;51.660;-0.100;2023-07-22T07:22:56;100496.92;;;16.04;51.20
61761;BME280;47664;51.660;-0.100;2023-07-22T07:25:23;100495.45;;;16.35;51.25
61761;BME280;47664;51.660;-0.100;2023-07-22T07:27:50;100493.05;;;15.88;51.49
61761;BME280;47664;51.660;-0.100;2023-07-22T07:30:17;100492.38;;;16.66;51.33
61761;BME280;47664;51.660;-0.100;2023-07-22T07:32:45;100492.76;;;16.49;50.98
61761;BME280;47664;51.660;-0.100;2023-07-22T07:35:13;100492.48;;;16.71;50.27
61761;BME280;47664;51.660;-0.100;2023-07-22T07:37:42;100490.46;;;16.89;50.72
61761;BME280;47664;51.660;-0.100;2023-07-22T07:40:10;100486.45;;;16.78;50.54
61761;BME280;47664;51.660;-0.100;2023-07-22T07:42:38;100486.95;;;17.09;49.94
61761;BME280;47664;51.660;-0.100;2023-07-22T07:45:06;100485.30;;;16.79;50.12
61761;BME280;47664;51.660;-0.100;2023-07-22T07:47:33;100482.34;;;16.50;50.69
61761;BME280;47664;51.660;-0.100;2023-07-22T07:50:01;100482.09;;;16.51;50.88
61761;BME280;47664;51.660;-0.100;2023-07-22T07:52:28;100481.42;;;16.75;50.58
61761;BME280;47664;51.660;-0.100;2023-07-22T07:54:55;100480.68;;;16.91;50.46
61761;BME280;47664;51.660;-0.100;2023-07-22T07:57:22;100481.27;;;17.03;50.30
61761;BME280;47664;51.660;-0.100;2023-07-22T07:59:49;100480.28;;;16.51;50.92
61761;BME280;47664;51.660;-0.100;2023-07-22T08:02:16;100478.15;;;16.40;51.51
61761;BME280;47664;51.660;-0.100;2023-07-22T08:04:43;100483.56;;;16.50;51.25
61761;BME280;47664;51.660;-0.100;2023-07-22T08:07:15;100485.10;;;16.76;51.41
61761;BME280;47664;51.660;-0.100;2023-07-22T08:09:42;100483.66;;;16.99;51.06
61761;BME280;47664;51.660;-0.100;2023-07-22T08:12:09;100484.23;;;16.90;50.99
61761;BME280;47664;51.660;-0.100;2023-07-22T08:14:36;100482.20;;;17.16;50.89
61761;BME280;47664;51.660;-0.100;2023-07-22T08:17:03;100479.21;;;17.21;50.52
61761;BME280;47664;51.660;-0.100;2023-07-22T08:19:30;100479.09;;;17.28;50.14
61761;BME280;47664;51.660;-0.100;2023-07-22T08:21:57;100474.15;;;17.57;50.10
61761;BME280;47664;51.660;-0.100;2023-07-22T08:24:24;100474.95;;;17.16;49.99
61761;BME280;47664;51.660;-0.100;2023-07-22T08:26:51;100465.71;;;17.83;50.04
61761;BME280;47664;51.660;-0.100;2023-07-22T08:29:18;100463.83;;;17.95;49.44
61761;BME280;47664;51.660;-0.100;2023-07-22T08:31:46;100458.16;;;17.65;49.45
61761;BME280;47664;51.660;-0.100;2023-07-22T08:34:14;100461.80;;;18.01;48.98
61761;BME280;47664;51.660;-0.100;2023-07-22T08:36:46;100456.04;;;17.57;49.18
61761;BME280;47664;51.660;-0.100;2023-07-22T08:39:13;100457.21;;;17.58;49.97
61761;BME280;47664;51.660;-0.100;2023-07-22T08:41:41;100456.37;;;17.64;50.04
61761;BME280;47664;51.660;-0.100;2023-07-22T08:44:14;100444.15;;;17.60;49.95
61761;BME280;47664;51.660;-0.100;2023-07-22T08:46:46;100449.93;;;17.27;50.33
61761;BME280;47664;51.660;-0.100;2023-07-22T08:49:15;100451.53;;;17.20;50.54
61761;BME280;47664;51.660;-0.100;2023-07-22T08:51:43;100444.31;;;17.35;49.83
61761;BME280;47664;51.660;-0.100;2023-07-22T08:54:11;100441.88;;;17.67;49.43
61761;BME280;47664;51.660;-0.100;2023-07-22T08:56:40;100437.92;;;17.96;49.00
61761;BME280;47664;51.660;-0.100;2023-07-22T08:59:07;100429.18;;;17.65;48.77
61761;BME280;47664;51.660;-0.100;2023-07-22T09:01:35;100428.73;;;17.72;49.63
61761;BME280;47664;51.660;-0.100;2023-07-22T09:04:02;100424.46;;;18.04;48.45
61761;BME280;47664;51.660;-0.100;2023-07-22T09:06:30;100424.49;;;18.14;48.14
61761;BME280;47664;51.660;-0.100;2023-07-22T09:08:58;100421.12;;;18.05;47.94
61761;BME280;47664;51.660;-0.100;2023-07-22T09:11:26;100422.02;;;17.54;48.42
61761;BME280;47664;51.660;-0.100;2023-07-22T09:13:53;100420.36;;;17.97;48.99
61761;BME280;47664;51.660;-0.100;2023-07-22T09:16:25;100421.98;;;18.18;48.08
61761;BME280;47664;51.660;-0.100;2023-07-22T09:18:55;100415.72;;;18.56;47.26
61761;BME280;47664;51.660;-0.100;2023-07-22T09:21:22;100415.26;;;18.59;47.21
61761;BME280;47664;51.660;-0.100;2023-07-22T09:23:49;100418.68;;;18.25;47.11
61761;BME280;47664;51.660;-0.100;2023-07-22T09:26:17;100414.04;;;18.07;47.18
61761;BME280;47664;51.660;-0.100;2023-07-22T09:28:50;100423.93;;;17.60;48.23
61761;BME280;47664;51.660;-0.100;2023-07-22T09:31:18;100418.71;;;17.49;48.64
61761;BME280;47664;51.660;-0.100;2023-07-22T09:33:44;100422.26;;;17.72;48.61
61761;BME280;47664;51.660;-0.100;2023-07-22T09:36:12;100419.62;;;18.02;48.94
61761;BME280;47664;51.660;-0.100;2023-07-22T09:38:39;100424.06;;;17.97;49.07
61761;BME280;47664;51.660;-0.100;2023-07-22T09:41:06;100420.63;;;17.74;49.32
61761;BME280;47664;51.660;-0.100;2023-07-22T09:43:36;100418.60;;;17.12;49.01
61761;BME280;47664;51.660;-0.100;2023-07-22T09:46:08;100419.87;;;17.60;48.91
61761;BME280;47664;51.660;-0.100;2023-07-22T09:48:44;100415.08;;;17.74;49.11
61761;BME280;47664;51.660;-0.100;2023-07-22T09:51:13;100416.56;;;18.20;48.02
61761;BME280;47664;51.660;-0.100;2023-07-22T09:53:45;100414.45;;;17.86;48.55
61761;BME280;47664;51.660;-0.100;2023-07-22T09:56:13;100413.00;;;17.95;47.98
61761;BME280;47664;51.660;-0.100;2023-07-22T09:58:40;100413.70;;;17.34;48.98
61761;BME280;47664;51.660;-0.100;2023-07-22T10:01:12;100416.15;;;17.30;49.75
61761;BME280;47664;51.660;-0.100;2023-07-22T10:03:40;100409.19;;;17.19;49.51
61761;BME280;47664;51.660;-0.100;2023-07-22T10:06:10;100417.52;;;17.12;49.12
61761;BME280;47664;51.660;-0.100;2023-07-22T10:08:38;100419.16;;;17.08;49.53
61761;BME280;47664;51.660;-0.100;2023-07-22T10:11:09;100414.58;;;17.82;49.02
61761;BME280;47664;51.660;-0.100;2023-07-22T10:13:38;100417.15;;;17.49;48.22
61761;BME280;47664;51.660;-0.100;2023-07-22T10:16:05;100411.87;;;17.35;48.45
61761;BME280;47664;51.660;-0.100;2023-07-22T10:18:34;100416.48;;;17.38;48.77
61761;BME280;47664;51.660;-0.100;2023-07-22T10:21:02;100414.90;;;17.77;48.20
61761;BME280;47664;51.660;-0.100;2023-07-22T10:23:31;100411.11;;;17.50;48.78
61761;BME280;47664;51.660;-0.100;2023-07-22T10:25:59;100407.14;;;17.49;48.94
61761;BME280;47664;51.660;-0.100;2023-07-22T10:28:28;100407.58;;;17.54;49.42
61761;BME280;47664;51.660;-0.100;2023-07-22T10:30:56;100405.72;;;18.05;48.30
61761;BME280;47664;51.660;-0.100;2023-07-22T10:33:24;100406.70;;;17.89;48.10
61761;BME280;47664;51.660;-0.100;2023-07-22T10:36:05;100403.96;;;17.77;48.05
61761;BME280;47664;51.660;-0.100;2023-07-22T10:38:33;100398.04;;;17.88;48.38
61761;BME280;47664;51.660;-0.100;2023-07-22T10:41:01;100401.25;;;18.22;47.84
61761;BME280;47664;51.660;-0.100;2023-07-22T10:43:31;100402.75;;;18.26;47.74
61761;BME280;47664;51.660;-0.100;2023-07-22T10:46:05;100400.11;;;18.31;47.96
61761;BME280;47664;51.660;-0.100;2023-07-22T10:48:35;100399.95;;;17.80;48.50
61761;BME280;47664;51.660;-0.100;2023-07-22T10:51:06;100400.80;;;18.17;48.04
61761;BME280;47664;51.660;-0.100;2023-07-22T10:53:41;100394.68;;;17.74;49.01
61761;BME280;47664;51.660;-0.100;2023-07-22T10:56:14;100397.92;;;18.42;47.59
61761;BME280;47664;51.660;-0.100;2023-07-22T10:58:59;100387.39;;;18.26;47.92
61761;BME280;47664;51.660;-0.100;2023-07-22T11:01:37;100380.02;;;17.28;49.59
61761;BME280;47664;51.660;-0.100;2023-07-22T11:04:11;100382.70;;;17.95;49.49
61761;BME280;47664;51.660;-0.100;2023-07-22T11:06:41;100379.00;;;17.89;49.18
61761;BME280;47664;51.660;-0.100;2023-07-22T11:09:34;100374.97;;;18.14;48.61
61761;BME280;47664;51.660;-0.100;2023-07-22T11:12:04;100372.57;;;18.31;48.34
61761;BME280;47664;51.660;-0.100;2023-07-22T11:14:33;100367.31;;;17.65;48.84
61761;BME280;47664;51.660;-0.100;2023-07-22T11:17:02;100367.15;;;17.94;48.45
61761;BME280;47664;51.660;-0.100;2023-07-22T11:19:30;100368.99;;;17.98;47.47
61761;BME280;47664;51.660;-0.100;2023-07-22T11:21:57;100364.87;;;18.54;47.38
61761;BME280;47664;51.660;-0.100;2023-07-22T11:24:24;100369.07;;;18.12;47.03
61761;BME280;47664;51.660;-0.100;2023-07-22T11:26:52;100358.39;;;17.83;47.54
61761;BME280;47664;51.660;-0.100;2023-07-22T11:29:20;100359.29;;;18.05;47.72
61761;BME280;47664;51.660;-0.100;2023-07-22T11:31:49;100356.96;;;18.29;47.21
61761;BME280;47664;51.660;-0.100;2023-07-22T11:34:19;100346.91;;;17.59;48.12
61761;BME280;47664;51.660;-0.100;2023-07-22T11:36:46;100348.47;;;17.54;48.31
61761;BME280;47664;51.660;-0.100;2023-07-22T11:39:14;100349.60;;;17.74;48.11
61761;BME280;47664;51.660;-0.100;2023-07-22T11:41:43;100354.63;;;17.21;49.44
61761;BME280;47664;51.660;-0.100;2023-07-22T11:44:11;100339.91;;;17.27;50.28
61761;BME280;47664;51.660;-0.100;2023-07-22T11:46:47;100341.70;;;17.08;51.36
61761;BME280;47664;51.660;-0.100;2023-07-22T11:49:23;100343.97;;;16.67;52.53
61761;BME280;47664;51.660;-0.100;2023-07-22T11:51:50;100347.13;;;17.13;53.06
61761;BME280;47664;51.660;-0.100;2023-07-22T11:54:20;100354.37;;;16.96;53.22
61761;BME280;47664;51.660;-0.100;2023-07-22T11:56:47;100351.51;;;17.18;54.69
61761;BME280;47664;51.660;-0.100;2023-07-22T11:59:14;100354.56;;;17.62;55.26
61761;BME280;47664;51.660;-0.100;2023-07-22T12:01:44;100357.70;;;17.41;56.16
61761;BME280;47664;51.660;-0.100;2023-07-22T12:04:12;100356.28;;;16.58;57.45
61761;BME280;47664;51.660;-0.100;2023-07-22T12:06:40;100364.51;;;16.35;59.55
61761;BME280;47664;51.660;-0.100;2023-07-22T12:09:08;100367.08;;;15.89;62.18
61761;BME280;47664;51.660;-0.100;2023-07-22T12:11:35;100367.44;;;15.63;63.83
61761;BME280;47664;51.660;-0.100;2023-07-22T12:14:11;100367.37;;;16.16;62.56
61761;BME280;47664;51.660;-0.100;2023-07-22T12:16:40;100366.43;;;15.61;64.21
61761;BME280;47664;51.660;-0.100;2023-07-22T12:19:08;100366.85;;;16.30;63.87
61761;BME280;47664;51.660;-0.100;2023-07-22T12:21:35;100365.35;;;15.85;64.18
61761;BME280;47664;51.660;-0.100;2023-07-22T12:24:03;100365.82;;;16.01;64.16
61761;BME280;47664;51.660;-0.100;2023-07-22T12:26:30;100368.40;;;15.96;63.88
61761;BME280;47664;51.660;-0.100;2023-07-22T12:28:57;100365.10;;;16.29;63.24
61761;BME280;47664;51.660;-0.100;2023-07-22T12:31:24;100360.81;;;15.59;63.89
61761;BME280;47664;51.660;-0.100;2023-07-22T12:33:51;100355.26;;;16.12;64.23
61761;BME280;47664;51.660;-0.100;2023-07-22T12:36:18;100356.31;;;15.68;64.66
61761;BME280;47664;51.660;-0.100;2023-07-22T12:38:45;100354.42;;;15.76;64.94
61761;BME280;47664;51.660;-0.100;2023-07-22T12:41:14;100355.06;;;15.82;64.94
61761;BME280;47664;51.660;-0.100;2023-07-22T12:43:41;100360.86;;;15.67;65.33